sensor_id;sensor_type;location;lat;lon;timestamp;temperature;humidity
326;DHT22;150;52.352;14.058;2023-05-10T00:00:29;13.70;18.60
326;DHT22;150;52.352;14.058;2023-05-10T00:03:10;13.70;18.90
326;DHT22;150;52.352;14.058;2023-05-10T00:05:40;13.70;18.80
326;DHT22;150;52.352;14.058;2023-05-10T00:08:08;13.70;19.00
326;DHT22;150;52.352;14.058;2023-05-10T00:10:35;13.60;18.90
326;DHT22;150;52.352;14.058;2023-05-10T00:13:05;13.60;19.20
326;DHT22;150;52.352;14.058;2023-05-10T00:15:31;13.60;19.30
326;DHT22;150;52.352;14.058;2023-05-10T00:18:01;13.50;19.30
326;DHT22;150;52.352;14.058;2023-05-10T00:20:34;13.40;19.40
326;DHT22;150;52.352;14.058;2023-05-10T00:23:00;13.50;19.50
326;DHT22;150;52.352;14.058;2023-05-10T00:25:27;13.40;19.60
326;DHT22;150;52.352;14.058;2023-05-10T00:27:55;13.40;19.50
326;DHT22;150;52.352;14.058;2023-05-10T00:30:25;13.40;20.00
326;DHT22;150;52.352;14.058;2023-05-10T00:32:52;13.40;20.00
326;DHT22;150;52.352;14.058;2023-05-10T00:35:20;13.40;19.90
326;DHT22;150;52.352;14.058;2023-05-10T00:37:48;13.40;20.00
326;DHT22;150;52.352;14.058;2023-05-10T00:40:15;13.40;19.80
326;DHT22;150;52.352;14.058;2023-05-10T00:42:42;13.40;20.10
326;DHT22;150;52.352;14.058;2023-05-10T00:45:09;13.40;19.90
326;DHT22;150;52.352;14.058;2023-05-10T00:47:39;13.30;20.30
326;DHT22;150;52.352;14.058;2023-05-10T00:50:07;13.20;20.40
326;DHT22;150;52.352;14.058;2023-05-10T00:52:36;13.20;20.50
326;DHT22;150;52.352;14.058;2023-05-10T00:55:03;12.90;20.70
326;DHT22;150;52.352;14.058;2023-05-10T00:57:30;12.90;21.10
326;DHT22;150;52.352;14.058;2023-05-10T00:59:57;12.80;21.10
326;DHT22;150;52.352;14.058;2023-05-10T01:02:25;12.80;21.30
326;DHT22;150;52.352;14.058;2023-05-10T01:04:52;12.70;21.20
326;DHT22;150;52.352;14.058;2023-05-10T01:07:19;12.80;21.20
326;DHT22;150;52.352;14.058;2023-05-10T01:09:50;12.80;21.10
326;DHT22;150;52.352;14.058;2023-05-10T01:12:42;12.70;21.00
326;DHT22;150;52.352;14.058;2023-05-10T01:15:34;12.70;21.20
326;DHT22;150;52.352;14.058;2023-05-10T01:18:20;12.80;21.30
326;DHT22;150;52.352;14.058;2023-05-10T01:21:19;12.70;21.10
326;DHT22;150;52.352;14.058;2023-05-10T01:28:12;12.70;21.30
326;DHT22;150;52.352;14.058;2023-05-10T01:35:00;12.50;21.30
326;DHT22;150;52.352;14.058;2023-05-10T01:38:18;12.50;21.60
326;DHT22;150;52.352;14.058;2023-05-10T02:09:33;12.20;22.00
326;DHT22;150;52.352;14.058;2023-05-10T02:12:50;12.20;22.10
326;DHT22;150;52.352;14.058;2023-05-10T02:23:59;12.00;22.10
326;DHT22;150;52.352;14.058;2023-05-10T02:45:20;11.80;22.40
326;DHT22;150;52.352;14.058;2023-05-10T02:48:32;11.70;22.50
326;DHT22;150;52.352;14.058;2023-05-10T02:51:18;11.70;22.90
326;DHT22;150;52.352;14.058;2023-05-10T02:54:15;11.80;22.70
326;DHT22;150;52.352;14.058;2023-05-10T02:57:05;11.80;22.50
326;DHT22;150;52.352;14.058;2023-05-10T03:03:05;11.80;22.20
326;DHT22;150;52.352;14.058;2023-05-10T03:05:56;11.80;22.20
326;DHT22;150;52.352;14.058;2023-05-10T03:08:32;11.80;22.20
326;DHT22;150;52.352;14.058;2023-05-10T03:11:36;11.80;22.40
326;DHT22;150;52.352;14.058;2023-05-10T03:14:48;11.80;22.40
326;DHT22;150;52.352;14.058;2023-05-10T03:18:15;11.80;22.50
326;DHT22;150;52.352;14.058;2023-05-10T03:21:10;11.80;22.50
326;DHT22;150;52.352;14.058;2023-05-10T03:24:15;11.90;22.40
326;DHT22;150;52.352;14.058;2023-05-10T03:27:25;12.00;22.40
326;DHT22;150;52.352;14.058;2023-05-10T03:30:32;12.00;22.10
326;DHT22;150;52.352;14.058;2023-05-10T03:33:12;12.00;22.20
326;DHT22;150;52.352;14.058;2023-05-10T03:35:56;12.00;22.10
326;DHT22;150;52.352;14.058;2023-05-10T03:38:31;12.10;22.30
326;DHT22;150;52.352;14.058;2023-05-10T03:41:13;12.10;22.30
326;DHT22;150;52.352;14.058;2023-05-10T03:44:33;12.10;22.10
326;DHT22;150;52.352;14.058;2023-05-10T03:47:31;12.20;22.10
326;DHT22;150;52.352;14.058;2023-05-10T03:57:42;12.80;20.90
326;DHT22;150;52.352;14.058;2023-05-10T04:08:10;14.10;18.40
326;DHT22;150;52.352;14.058;2023-05-10T04:11:06;14.20;18.00
326;DHT22;150;52.352;14.058;2023-05-10T04:14:12;14.30;17.70
326;DHT22;150;52.352;14.058;2023-05-10T04:17:34;14.60;17.50
326;DHT22;150;52.352;14.058;2023-05-10T04:20:15;14.60;17.40
326;DHT22;150;52.352;14.058;2023-05-10T04:22:59;14.90;16.80
326;DHT22;150;52.352;14.058;2023-05-10T04:25:40;15.60;15.90
326;DHT22;150;52.352;14.058;2023-05-10T04:28:13;16.60;14.60
326;DHT22;150;52.352;14.058;2023-05-10T04:30:48;17.40;13.60
326;DHT22;150;52.352;14.058;2023-05-10T04:33:19;17.90;12.20
326;DHT22;150;52.352;14.058;2023-05-10T04:36:15;17.90;11.90
326;DHT22;150;52.352;14.058;2023-05-10T04:39:18;17.50;11.90
326;DHT22;150;52.352;14.058;2023-05-10T04:42:46;16.80;13.20
326;DHT22;150;52.352;14.058;2023-05-10T04:49:13;15.80;14.70
326;DHT22;150;52.352;14.058;2023-05-10T04:52:05;15.40;15.90
326;DHT22;150;52.352;14.058;2023-05-10T04:54:31;14.90;16.50
326;DHT22;150;52.352;14.058;2023-05-10T04:57:22;14.80;17.00
326;DHT22;150;52.352;14.058;2023-05-10T05:00:15;14.60;17.40
326;DHT22;150;52.352;14.058;2023-05-10T05:03:01;14.70;17.30
326;DHT22;150;52.352;14.058;2023-05-10T05:05:39;14.80;17.00
326;DHT22;150;52.352;14.058;2023-05-10T05:08:23;14.80;17.20
326;DHT22;150;52.352;14.058;2023-05-10T05:11:15;14.70;16.70
326;DHT22;150;52.352;14.058;2023-05-10T05:14:02;14.80;17.40
326;DHT22;150;52.352;14.058;2023-05-10T05:16:57;14.70;17.70
326;DHT22;150;52.352;14.058;2023-05-10T05:19:48;14.80;17.80
326;DHT22;150;52.352;14.058;2023-05-10T05:25:58;15.00;17.20
326;DHT22;150;52.352;14.058;2023-05-10T05:28:34;15.10;17.40
326;DHT22;150;52.352;14.058;2023-05-10T05:31:12;15.10;17.20
326;DHT22;150;52.352;14.058;2023-05-10T05:33:56;15.20;17.50
326;DHT22;150;52.352;14.058;2023-05-10T05:36:26;15.20;17.20
326;DHT22;150;52.352;14.058;2023-05-10T05:39:10;15.10;17.10
326;DHT22;150;52.352;14.058;2023-05-10T05:41:58;15.10;17.30
326;DHT22;150;52.352;14.058;2023-05-10T05:44:50;15.20;17.40
326;DHT22;150;52.352;14.058;2023-05-10T05:47:40;15.40;17.50
326;DHT22;150;52.352;14.058;2023-05-10T05:50:24;15.50;16.90
326;DHT22;150;52.352;14.058;2023-05-10T05:53:07;15.50;16.70
326;DHT22;150;52.352;14.058;2023-05-10T05:55:38;15.60;16.50
326;DHT22;150;52.352;14.058;2023-05-10T05:58:13;15.60;17.40
326;DHT22;150;52.352;14.058;2023-05-10T06:00:48;15.80;17.00
326;DHT22;150;52.352;14.058;2023-05-10T06:03:18;15.90;16.70
326;DHT22;150;52.352;14.058;2023-05-10T06:08:33;16.30;16.40
326;DHT22;150;52.352;14.058;2023-05-10T06:11:07;16.40;15.60
326;DHT22;150;52.352;14.058;2023-05-10T06:13:38;16.60;16.00
326;DHT22;150;52.352;14.058;2023-05-10T06:16:10;16.80;15.30
326;DHT22;150;52.352;14.058;2023-05-10T06:18:51;16.90;15.50
326;DHT22;150;52.352;14.058;2023-05-10T06:21:33;16.90;15.40
326;DHT22;150;52.352;14.058;2023-05-10T06:24:35;17.00;15.40
326;DHT22;150;52.352;14.058;2023-05-10T06:27:07;17.10;15.20
326;DHT22;150;52.352;14.058;2023-05-10T06:30:27;17.40;14.40
326;DHT22;150;52.352;14.058;2023-05-10T06:33:05;17.60;14.50
326;DHT22;150;52.352;14.058;2023-05-10T06:35:44;17.60;14.60
326;DHT22;150;52.352;14.058;2023-05-10T06:38:16;17.50;14.50
326;DHT22;150;52.352;14.058;2023-05-10T06:40:56;17.70;14.50
326;DHT22;150;52.352;14.058;2023-05-10T06:43:37;17.90;14.00
326;DHT22;150;52.352;14.058;2023-05-10T06:46:29;17.80;13.80
326;DHT22;150;52.352;14.058;2023-05-10T06:48:59;17.80;14.50
326;DHT22;150;52.352;14.058;2023-05-10T06:52:02;17.80;14.00
326;DHT22;150;52.352;14.058;2023-05-10T06:58:52;18.10;14.20
326;DHT22;150;52.352;14.058;2023-05-10T07:01:27;18.30;13.40
326;DHT22;150;52.352;14.058;2023-05-10T07:08:11;18.50;13.40
326;DHT22;150;52.352;14.058;2023-05-10T07:11:03;18.60;13.40
326;DHT22;150;52.352;14.058;2023-05-10T07:13:43;18.80;13.30
326;DHT22;150;52.352;14.058;2023-05-10T07:20:15;18.80;13.00
326;DHT22;150;52.352;14.058;2023-05-10T07:23:04;18.90;12.50
326;DHT22;150;52.352;14.058;2023-05-10T07:29:16;18.70;12.50
326;DHT22;150;52.352;14.058;2023-05-10T07:32:12;18.80;13.00
326;DHT22;150;52.352;14.058;2023-05-10T07:34:51;18.80;12.70
326;DHT22;150;52.352;14.058;2023-05-10T07:37:33;18.80;12.50
326;DHT22;150;52.352;14.058;2023-05-10T07:40:29;18.80;12.40
326;DHT22;150;52.352;14.058;2023-05-10T07:43:01;18.90;12.40
326;DHT22;150;52.352;14.058;2023-05-10T07:45:36;18.90;12.50
326;DHT22;150;52.352;14.058;2023-05-10T07:48:06;19.00;12.70
326;DHT22;150;52.352;14.058;2023-05-10T07:50:38;19.10;12.60
326;DHT22;150;52.352;14.058;2023-05-10T07:56:49;19.20;12.00
326;DHT22;150;52.352;14.058;2023-05-10T07:59:21;19.20;12.00
326;DHT22;150;52.352;14.058;2023-05-10T08:28:54;20.20;11.40
326;DHT22;150;52.352;14.058;2023-05-10T09:09:48;21.20;10.10
326;DHT22;150;52.352;14.058;2023-05-10T09:16:16;21.30;9.90
326;DHT22;150;52.352;14.058;2023-05-10T09:26:07;21.30;10.90
326;DHT22;150;52.352;14.058;2023-05-10T09:29:20;21.10;10.30
326;DHT22;150;52.352;14.058;2023-05-10T09:34:45;21.40;10.30
326;DHT22;150;52.352;14.058;2023-05-10T09:36:47;21.50;10.20
326;DHT22;150;52.352;14.058;2023-05-10T09:40:00;21.70;9.60
326;DHT22;150;52.352;14.058;2023-05-10T09:43:27;21.90;11.00
326;DHT22;150;52.352;14.058;2023-05-10T09:49:24;22.00;9.90
326;DHT22;150;52.352;14.058;2023-05-10T09:52:18;22.20;9.70
326;DHT22;150;52.352;14.058;2023-05-10T09:55:21;22.10;9.30
326;DHT22;150;52.352;14.058;2023-05-10T09:58:27;21.90;9.30
326;DHT22;150;52.352;14.058;2023-05-10T10:01:21;21.90;9.70
326;DHT22;150;52.352;14.058;2023-05-10T10:04:19;21.90;9.70
326;DHT22;150;52.352;14.058;2023-05-10T10:07:23;22.00;9.50
326;DHT22;150;52.352;14.058;2023-05-10T10:10:11;22.30;8.60
326;DHT22;150;52.352;14.058;2023-05-10T10:12:51;22.30;8.90
326;DHT22;150;52.352;14.058;2023-05-10T10:15:47;22.30;9.00
326;DHT22;150;52.352;14.058;2023-05-10T10:18:31;22.40;8.90
326;DHT22;150;52.352;14.058;2023-05-10T10:21:12;22.60;8.70
326;DHT22;150;52.352;14.058;2023-05-10T10:23:56;22.60;7.90
326;DHT22;150;52.352;14.058;2023-05-10T10:26:44;22.70;8.80
326;DHT22;150;52.352;14.058;2023-05-10T10:29:34;22.90;9.20
326;DHT22;150;52.352;14.058;2023-05-10T10:32:25;23.10;8.80
326;DHT22;150;52.352;14.058;2023-05-10T10:35:15;23.20;7.70
326;DHT22;150;52.352;14.058;2023-05-10T10:37:53;23.10;7.20
326;DHT22;150;52.352;14.058;2023-05-10T10:40:38;23.00;7.30
326;DHT22;150;52.352;14.058;2023-05-10T10:43:38;23.00;7.80
326;DHT22;150;52.352;14.058;2023-05-10T10:46:22;22.90;8.20
326;DHT22;150;52.352;14.058;2023-05-10T10:52:50;23.00;7.70
326;DHT22;150;52.352;14.058;2023-05-10T10:58:38;23.30;7.70
326;DHT22;150;52.352;14.058;2023-05-10T11:01:56;23.40;7.70
326;DHT22;150;52.352;14.058;2023-05-10T11:04:51;23.40;6.20
326;DHT22;150;52.352;14.058;2023-05-10T11:23:48;23.50;6.20
326;DHT22;150;52.352;14.058;2023-05-10T11:26:26;23.50;6.20
326;DHT22;150;52.352;14.058;2023-05-10T11:28:57;23.60;6.20
326;DHT22;150;52.352;14.058;2023-05-10T11:34:39;23.60;6.30
326;DHT22;150;52.352;14.058;2023-05-10T11:37:38;23.40;6.50
326;DHT22;150;52.352;14.058;2023-05-10T11:40:26;23.50;5.80
326;DHT22;150;52.352;14.058;2023-05-10T11:43:19;23.50;7.10
326;DHT22;150;52.352;14.058;2023-05-10T11:49:33;23.70;5.90
326;DHT22;150;52.352;14.058;2023-05-10T11:52:40;23.60;5.60
326;DHT22;150;52.352;14.058;2023-05-10T11:58:45;23.80;5.70
326;DHT22;150;52.352;14.058;2023-05-10T12:01:27;23.90;5.80
326;DHT22;150;52.352;14.058;2023-05-10T12:04:02;24.00;5.80
326;DHT22;150;52.352;14.058;2023-05-10T12:06:48;24.00;5.80
326;DHT22;150;52.352;14.058;2023-05-10T12:22:24;24.20;6.00
326;DHT22;150;52.352;14.058;2023-05-10T12:26:19;24.30;6.00
326;DHT22;150;52.352;14.058;2023-05-10T12:35:31;24.70;6.10
326;DHT22;150;52.352;14.058;2023-05-10T12:38:39;24.70;5.50
326;DHT22;150;52.352;14.058;2023-05-10T12:41:50;24.90;5.90
326;DHT22;150;52.352;14.058;2023-05-10T12:45:08;24.80;5.10
326;DHT22;150;52.352;14.058;2023-05-10T12:48:13;24.70;6.10
326;DHT22;150;52.352;14.058;2023-05-10T12:50:59;24.80;4.20
326;DHT22;150;52.352;14.058;2023-05-10T12:54:01;24.80;4.20
326;DHT22;150;52.352;14.058;2023-05-10T12:57:09;24.70;4.70
326;DHT22;150;52.352;14.058;2023-05-10T13:00:20;24.70;5.20
326;DHT22;150;52.352;14.058;2023-05-10T13:03:19;24.50;5.00
326;DHT22;150;52.352;14.058;2023-05-10T13:06:01;24.20;6.00
326;DHT22;150;52.352;14.058;2023-05-10T13:09:27;24.20;5.50
326;DHT22;150;52.352;14.058;2023-05-10T13:12:55;24.30;5.60
326;DHT22;150;52.352;14.058;2023-05-10T13:22:59;24.70;5.40
326;DHT22;150;52.352;14.058;2023-05-10T13:26:23;24.90;5.70
326;DHT22;150;52.352;14.058;2023-05-10T13:29:22;25.00;4.90
326;DHT22;150;52.352;14.058;2023-05-10T13:35:17;25.10;5.00
326;DHT22;150;52.352;14.058;2023-05-10T13:38:14;25.20;4.50
326;DHT22;150;52.352;14.058;2023-05-10T13:41:21;25.10;4.80
326;DHT22;150;52.352;14.058;2023-05-10T13:44:24;25.00;4.40
326;DHT22;150;52.352;14.058;2023-05-10T13:47:15;24.90;4.10
326;DHT22;150;52.352;14.058;2023-05-10T13:50:08;24.90;4.70
326;DHT22;150;52.352;14.058;2023-05-10T13:53:38;25.20;5.50
326;DHT22;150;52.352;14.058;2023-05-10T13:56:10;25.30;4.60
326;DHT22;150;52.352;14.058;2023-05-10T14:01:48;24.70;4.50
326;DHT22;150;52.352;14.058;2023-05-10T14:07:37;24.80;6.00
326;DHT22;150;52.352;14.058;2023-05-10T14:22:27;24.80;4.30
326;DHT22;150;52.352;14.058;2023-05-10T14:55:19;24.70;5.00
326;DHT22;150;52.352;14.058;2023-05-10T15:09:41;24.80;4.90
326;DHT22;150;52.352;14.058;2023-05-10T15:16:13;25.00;5.80
326;DHT22;150;52.352;14.058;2023-05-10T15:30:38;24.80;4.70
326;DHT22;150;52.352;14.058;2023-05-10T15:33:48;24.80;4.90
326;DHT22;150;52.352;14.058;2023-05-10T15:40:50;24.80;5.30
326;DHT22;150;52.352;14.058;2023-05-10T18:27:30;22.60;8.80
326;DHT22;150;52.352;14.058;2023-05-10T18:30:31;22.40;10.80
326;DHT22;150;52.352;14.058;2023-05-10T18:33:24;22.40;11.70
326;DHT22;150;52.352;14.058;2023-05-10T18:36:53;22.30;14.10
326;DHT22;150;52.352;14.058;2023-05-10T18:39:39;22.20;15.90
326;DHT22;150;52.352;14.058;2023-05-10T18:42:21;22.10;16.50
326;DHT22;150;52.352;14.058;2023-05-10T18:45:17;22.10;16.80
326;DHT22;150;52.352;14.058;2023-05-10T18:47:54;22.00;17.30
326;DHT22;150;52.352;14.058;2023-05-10T18:50:54;22.00;17.70
326;DHT22;150;52.352;14.058;2023-05-10T19:18:10;21.60;19.20
326;DHT22;150;52.352;14.058;2023-05-10T19:21:26;21.50;19.40
326;DHT22;150;52.352;14.058;2023-05-10T19:43:19;21.20;20.70
326;DHT22;150;52.352;14.058;2023-05-10T20:20:17;20.70;22.60
326;DHT22;150;52.352;14.058;2023-05-10T20:30:52;20.40;23.30
326;DHT22;150;52.352;14.058;2023-05-10T20:40:43;20.10;24.40
326;DHT22;150;52.352;14.058;2023-05-10T20:57:49;19.70;25.40
326;DHT22;150;52.352;14.058;2023-05-10T21:05:17;19.40;25.90
326;DHT22;150;52.352;14.058;2023-05-10T21:09:44;19.30;25.90
326;DHT22;150;52.352;14.058;2023-05-10T21:15:48;19.20;26.90
326;DHT22;150;52.352;14.058;2023-05-10T21:18:58;19.10;26.90
326;DHT22;150;52.352;14.058;2023-05-10T21:25:50;18.90;27.70
326;DHT22;150;52.352;14.058;2023-05-10T21:29:19;18.80;27.80
326;DHT22;150;52.352;14.058;2023-05-10T21:32:21;18.80;28.20
326;DHT22;150;52.352;14.058;2023-05-10T21:35:08;18.70;28.00
326;DHT22;150;52.352;14.058;2023-05-10T21:38:25;18.70;28.20
326;DHT22;150;52.352;14.058;2023-05-10T21:41:42;18.60;28.10
326;DHT22;150;52.352;14.058;2023-05-10T21:44:30;18.60;28.20
326;DHT22;150;52.352;14.058;2023-05-10T21:47:14;18.60;28.20
326;DHT22;150;52.352;14.058;2023-05-10T21:50:05;18.50;28.30
326;DHT22;150;52.352;14.058;2023-05-10T21:52:34;18.50;28.40
326;DHT22;150;52.352;14.058;2023-05-10T21:55:01;18.50;28.50
326;DHT22;150;52.352;14.058;2023-05-10T21:57:28;18.50;28.70
326;DHT22;150;52.352;14.058;2023-05-10T21:59:55;18.40;28.40
326;DHT22;150;52.352;14.058;2023-05-10T22:02:22;18.30;28.20
326;DHT22;150;52.352;14.058;2023-05-10T22:04:49;18.30;28.30
326;DHT22;150;52.352;14.058;2023-05-10T22:07:17;18.30;28.60
326;DHT22;150;52.352;14.058;2023-05-10T22:09:43;18.30;28.70
326;DHT22;150;52.352;14.058;2023-05-10T22:12:11;18.30;29.20
326;DHT22;150;52.352;14.058;2023-05-10T22:14:37;18.30;29.20
326;DHT22;150;52.352;14.058;2023-05-10T22:17:04;18.30;29.20
326;DHT22;150;52.352;14.058;2023-05-10T22:19:31;18.40;29.20
326;DHT22;150;52.352;14.058;2023-05-10T22:21:57;18.40;29.20
326;DHT22;150;52.352;14.058;2023-05-10T22:24:25;18.40;29.20
326;DHT22;150;52.352;14.058;2023-05-10T22:26:52;18.40;29.20
326;DHT22;150;52.352;14.058;2023-05-10T22:29:19;18.50;29.30
326;DHT22;150;52.352;14.058;2023-05-10T22:31:46;18.40;29.20
326;DHT22;150;52.352;14.058;2023-05-10T22:34:13;18.40;29.20
326;DHT22;150;52.352;14.058;2023-05-10T22:36:40;18.40;29.20
326;DHT22;150;52.352;14.058;2023-05-10T22:39:07;18.30;29.20
326;DHT22;150;52.352;14.058;2023-05-10T22:41:35;18.30;29.20
326;DHT22;150;52.352;14.058;2023-05-10T22:44:02;18.20;29.10
326;DHT22;150;52.352;14.058;2023-05-10T22:46:30;18.20;29.10
326;DHT22;150;52.352;14.058;2023-05-10T22:49:00;18.10;29.00
326;DHT22;150;52.352;14.058;2023-05-10T22:51:27;18.10;29.00
326;DHT22;150;52.352;14.058;2023-05-10T22:53:54;18.00;29.00
326;DHT22;150;52.352;14.058;2023-05-10T22:56:21;18.00;29.00
326;DHT22;150;52.352;14.058;2023-05-10T22:58:49;17.90;28.90
326;DHT22;150;52.352;14.058;2023-05-10T23:01:16;17.80;29.10
326;DHT22;150;52.352;14.058;2023-05-10T23:03:43;17.80;28.80
326;DHT22;150;52.352;14.058;2023-05-10T23:06:09;17.70;28.80
326;DHT22;150;52.352;14.058;2023-05-10T23:08:36;17.70;28.80
326;DHT22;150;52.352;14.058;2023-05-10T23:11:02;17.60;29.00
326;DHT22;150;52.352;14.058;2023-05-10T23:13:29;17.50;29.50
326;DHT22;150;52.352;14.058;2023-05-10T23:15:57;17.50;30.00
326;DHT22;150;52.352;14.058;2023-05-10T23:18:29;17.40;30.20
326;DHT22;150;52.352;14.058;2023-05-10T23:20:56;17.30;30.40
326;DHT22;150;52.352;14.058;2023-05-10T23:23:23;17.20;30.80
326;DHT22;150;52.352;14.058;2023-05-10T23:25:49;17.20;31.10
326;DHT22;150;52.352;14.058;2023-05-10T23:28:16;17.10;31.40
326;DHT22;150;52.352;14.058;2023-05-10T23:30:43;17.00;31.40
326;DHT22;150;52.352;14.058;2023-05-10T23:33:11;17.00;31.70
326;DHT22;150;52.352;14.058;2023-05-10T23:35:38;16.90;31.50
326;DHT22;150;52.352;14.058;2023-05-10T23:38:05;16.90;31.40
326;DHT22;150;52.352;14.058;2023-05-10T23:40:31;16.90;31.40
326;DHT22;150;52.352;14.058;2023-05-10T23:42:58;16.90;31.30
326;DHT22;150;52.352;14.058;2023-05-10T23:45:25;16.90;31.10
326;DHT22;150;52.352;14.058;2023-05-10T23:47:51;16.90;30.90
326;DHT22;150;52.352;14.058;2023-05-10T23:50:19;16.90;30.00
326;DHT22;150;52.352;14.058;2023-05-10T23:52:46;16.90;29.80
326;DHT22;150;52.352;14.058;2023-05-10T23:55:13;17.00;29.30
326;DHT22;150;52.352;14.058;2023-05-10T23:57:39;16.90;28.30
